Time;durP1;ratioP1;P1;durP2;ratioP2;P2;SDS_P1;SDS_P2;PMS_P1;PMS_P2;Temp;Humidity;BMP_temperature;BMP_pressure;BME280_temperature;BME280_humidity;BME280_pressure;Samples;Min_cycle;Max_cycle;Signal;HPM_P1;HPM_P2
2023/02/10 05:44:08;;;;;;;66.10;27.90;;;;;;;;;;5185203;24;20267;-67
2023/02/10 05:46:34;;;;;;;67.97;27.98;;;;;;;;;;4824431;29;20483;-58
2023/02/10 05:49:00;;;;;;;70.28;29.15;;;;;;;;;;4824552;29;20049;-61
2023/02/10 05:51:26;;;;;;;71.75;28.58;;;;;;;;;;4824489;29;20033;-60
2023/02/10 05:53:53;;;;;;;72.22;29.77;;;;;;;;;;4824117;29;20031;-59
2023/02/10 05:56:19;;;;;;;75.25;31.10;;;;;;;;;;4824601;29;20328;-58
2023/02/10 05:58:45;;;;;;;76.70;30.77;;;;;;;;;;4824062;29;20497;-67
2023/02/10 06:01:12;;;;;;;82.68;32.70;;;;;;;;;;4824758;29;20091;-60
2023/02/10 06:03:38;;;;;;;81.35;32.00;;;;;;;;;;4824230;29;20031;-64
2023/02/10 06:06:04;;;;;;;80.82;32.97;;;;;;;;;;4824050;29;20551;-60
2023/02/10 06:08:30;;;;;;;80.40;33.05;;;;;;;;;;4823852;29;20078;-60
2023/02/10 06:10:56;;;;;;;75.85;33.00;;;;;;;;;;4824373;29;20034;-61
2023/02/10 06:13:22;;;;;;;73.43;30.58;;;;;;;;;;4824154;29;20087;-61
2023/02/10 06:15:48;;;;;;;75.40;33.33;;;;;;;;;;4823665;29;20372;-63
2023/02/10 06:18:14;;;;;;;78.32;33.00;;;;;;;;;;4823585;29;20425;-60
2023/02/10 06:20:40;;;;;;;81.88;34.38;;;;;;;;;;4823913;29;20178;-59
2023/02/10 06:23:06;;;;;;;78.45;31.05;;;;;;;;;;4823815;29;20049;-59
2023/02/10 06:25:35;;;;;;;73.45;30.60;;;;;;;;;;4824113;29;20030;-62
2023/02/10 06:28:01;;;;;;;70.03;30.20;;;;;;;;;;4823677;29;20039;-70
2023/02/10 06:30:27;;;;;;;72.93;30.52;;;;;;;;;;4824220;29;20030;-58
2023/02/10 06:32:54;;;;;;;72.80;28.77;;;;;;;;;;4823982;29;20118;-58
2023/02/10 06:35:20;;;;;;;75.45;31.42;;;;;;;;;;4824385;29;20105;-59
2023/02/10 06:37:46;;;;;;;79.55;34.35;;;;;;;;;;4823795;29;20026;-60
2023/02/10 06:40:12;;;;;;;86.95;34.80;;;;;;;;;;4823389;29;20035;-60
2023/02/10 06:42:38;;;;;;;79.57;31.67;;;;;;;;;;4823542;29;20026;-60
2023/02/10 06:45:05;;;;;;;79.90;32.90;;;;;;;;;;4823190;29;20587;-62
2023/02/10 06:47:31;;;;;;;76.40;31.88;;;;;;;;;;4823318;29;20113;-60
2023/02/10 06:49:57;;;;;;;68.18;30.77;;;;;;;;;;4823559;29;20061;-59
2023/02/10 06:52:24;;;;;;;69.47;29.88;;;;;;;;;;4822711;29;20027;-62
2023/02/10 06:54:50;;;;;;;73.20;30.00;;;;;;;;;;4823452;29;20494;-68
2023/02/10 06:57:16;;;;;;;72.95;32.60;;;;;;;;;;4822257;29;20035;-60
2023/02/10 06:59:42;;;;;;;73.95;31.55;;;;;;;;;;4823233;29;20502;-61
2023/02/10 07:02:09;;;;;;;74.38;32.42;;;;;;;;;;4823404;29;20113;-60
2023/02/10 07:04:35;;;;;;;76.32;32.85;;;;;;;;;;4823251;29;20125;-61
2023/02/10 07:07:01;;;;;;;66.63;31.23;;;;;;;;;;4823112;29;20106;-60
2023/02/10 07:09:27;;;;;;;66.03;30.15;;;;;;;;;;4823129;29;20504;-60
2023/02/10 07:11:53;;;;;;;65.65;29.02;;;;;;;;;;4821514;29;20132;-59
2023/02/10 07:14:19;;;;;;;66.25;28.60;;;;;;;;;;4822899;29;20038;-71
2023/02/10 07:16:46;;;;;;;64.10;28.10;;;;;;;;;;4823122;29;20062;-60
2023/02/10 07:19:12;;;;;;;55.47;25.17;;;;;;;;;;4823213;29;20491;-63
2023/02/10 07:21:38;;;;;;;60.60;26.67;;;;;;;;;;4823155;29;20113;-60
2023/02/10 07:24:04;;;;;;;55.65;24.13;;;;;;;;;;4823057;29;20077;-60
2023/02/10 07:26:30;;;;;;;52.53;23.33;;;;;;;;;;4823112;29;20041;-65
2023/02/10 07:28:56;;;;;;;42.28;19.50;;;;;;;;;;4822869;29;20038;-60
2023/02/10 07:31:22;;;;;;;42.30;20.65;;;;;;;;;;4822992;29;20030;-60
2023/02/10 07:33:48;;;;;;;44.75;19.73;;;;;;;;;;4822807;29;20174;-59
2023/02/10 07:36:15;;;;;;;50.22;22.52;;;;;;;;;;4823308;29;20480;-69
2023/02/10 07:38:41;;;;;;;44.63;22.08;;;;;;;;;;4822618;29;20030;-60
2023/02/10 07:41:07;;;;;;;45.85;21.77;;;;;;;;;;4822656;29;20547;-63
2023/02/10 07:43:33;;;;;;;49.15;21.60;;;;;;;;;;4822408;29;20099;-59
2023/02/10 07:45:59;;;;;;;51.72;23.73;;;;;;;;;;4822221;29;20054;-75
2023/02/10 07:48:25;;;;;;;52.85;22.63;;;;;;;;;;4821150;29;20042;-58
2023/02/10 07:50:51;;;;;;;51.95;22.20;;;;;;;;;;4822506;29;20093;-58
2023/02/10 07:53:21;;;;;;;51.50;24.08;;;;;;;;;;4822736;29;20030;-63
2023/02/10 07:55:48;;;;;;;48.00;22.08;;;;;;;;;;4822924;29;20050;-59
2023/02/10 07:58:14;;;;;;;49.45;22.65;;;;;;;;;;4822744;29;20110;-59
2023/02/10 08:00:40;;;;;;;46.47;22.33;;;;;;;;;;4822789;29;20042;-61
2023/02/10 08:03:06;;;;;;;51.42;22.17;;;;;;;;;;4822273;29;20117;-58
2023/02/10 08:05:32;;;;;;;51.60;24.33;;;;;;;;;;4821752;29;20040;-63
2023/02/10 08:07:58;;;;;;;54.47;23.75;;;;;;;;;;4821921;29;20030;-58
2023/02/10 08:10:24;;;;;;;54.08;24.30;;;;;;;;;;4821973;29;20067;-59
2023/02/10 08:12:50;;;;;;;52.70;24.65;;;;;;;;;;4821111;29;20034;-57
2023/02/10 08:15:16;;;;;;;55.70;23.27;;;;;;;;;;4820307;29;20491;-63
2023/02/10 08:17:43;;;;;;;61.60;25.70;;;;;;;;;;4820557;29;20033;-62
2023/02/10 08:20:10;;;;;;;59.63;24.98;;;;;;;;;;4820904;29;20097;-59
2023/02/10 08:22:36;;;;;;;59.47;24.67;;;;;;;;;;4821577;29;20157;-65
2023/02/10 08:25:02;;;;;;;60.60;26.23;;;;;;;;;;4822175;29;20034;-59
2023/02/10 08:27:31;;;;;;;60.10;25.85;;;;;;;;;;4821796;29;20034;-59
2023/02/10 08:29:57;;;;;;;61.33;27.00;;;;;;;;;;4821478;29;20526;-69
2023/02/10 08:32:23;;;;;;;64.70;26.83;;;;;;;;;;4821217;29;20057;-65
2023/02/10 08:34:49;;;;;;;60.75;26.30;;;;;;;;;;4820986;29;20062;-66
2023/02/10 08:37:16;;;;;;;65.55;27.67;;;;;;;;;;4821998;29;20034;-66
2023/02/10 08:39:42;;;;;;;61.05;29.52;;;;;;;;;;4823286;29;20387;-61
2023/02/10 08:42:09;;;;;;;68.70;29.67;;;;;;;;;;4820490;29;20034;-59
2023/02/10 08:44:35;;;;;;;66.88;29.95;;;;;;;;;;4825343;29;20058;-74
2023/02/10 08:47:01;;;;;;;62.67;28.20;;;;;;;;;;4839652;29;20116;-59
2023/02/10 08:49:28;;;;;;;80.78;33.72;;;;;;;;;;4840107;29;20376;-60
2023/02/10 08:51:54;;;;;;;63.70;29.08;;;;;;;;;;4840112;29;20026;-59
2023/02/10 08:54:21;;;;;;;98.22;39.67;;;;;;;;;;4840200;29;20490;-70
2023/02/10 08:56:47;;;;;;;61.72;28.83;;;;;;;;;;4839966;29;20045;-57
2023/02/10 08:59:13;;;;;;;59.17;26.67;;;;;;;;;;4840044;29;20092;-60
2023/02/10 09:01:39;;;;;;;59.08;27.25;;;;;;;;;;4840156;29;20063;-60
2023/02/10 09:04:05;;;;;;;59.10;27.35;;;;;;;;;;4823563;29;20037;-60
2023/02/10 09:06:38;;;;;;;58.13;27.08;;;;;;;;;;4839951;29;20026;-60
2023/02/10 09:09:06;;;;;;;55.20;25.35;;;;;;;;;;4839043;29;20046;-60
2023/02/10 09:11:32;;;;;;;60.35;25.98;;;;;;;;;;4838877;29;20534;-59
2023/02/10 09:13:58;;;;;;;56.88;25.58;;;;;;;;;;4838895;29;20234;-60
2023/02/10 09:16:24;;;;;;;52.65;23.25;;;;;;;;;;4841453;29;20030;-62
2023/02/10 09:18:50;;;;;;;57.35;25.63;;;;;;;;;;4842047;29;20032;-60
2023/02/10 09:21:16;;;;;;;43.15;20.02;;;;;;;;;;4842404;29;20026;-59
2023/02/10 09:23:43;;;;;;;44.40;19.27;;;;;;;;;;4841943;29;20057;-59
2023/02/10 09:26:09;;;;;;;39.53;18.30;;;;;;;;;;4841991;29;20025;-59
2023/02/10 09:28:35;;;;;;;28.30;13.63;;;;;;;;;;4842748;29;20158;-59
2023/02/10 09:31:01;;;;;;;32.65;16.08;;;;;;;;;;4843101;29;20101;-59
2023/02/10 09:33:27;;;;;;;34.30;16.92;;;;;;;;;;4843285;29;20033;-59
2023/02/10 09:35:53;;;;;;;35.08;16.15;;;;;;;;;;4842716;29;20030;-71
2023/02/10 09:38:19;;;;;;;39.40;17.67;;;;;;;;;;4842954;29;20033;-68
2023/02/10 09:40:51;;;;;;;41.03;17.73;;;;;;;;;;4843116;29;20052;-61
2023/02/10 09:43:25;;;;;;;30.10;14.17;;;;;;;;;;4842325;29;20037;-59
2023/02/10 09:45:54;;;;;;;39.83;17.77;;;;;;;;;;4841280;29;20050;-61
2023/02/10 09:48:20;;;;;;;41.08;18.42;;;;;;;;;;4841721;29;20045;-63
2023/02/10 09:50:55;;;;;;;43.65;19.10;;;;;;;;;;4841693;29;20022;-58
2023/02/10 09:53:28;;;;;;;35.72;16.13;;;;;;;;;;4841625;29;20026;-59
2023/02/10 09:55:59;;;;;;;44.58;18.48;;;;;;;;;;4842376;29;20140;-71
2023/02/10 09:58:28;;;;;;;41.17;17.67;;;;;;;;;;4842294;29;20022;-60
2023/02/10 10:01:04;;;;;;;42.80;19.17;;;;;;;;;;4842460;29;20125;-59
2023/02/10 10:03:50;;;;;;;42.75;19.35;;;;;;;;;;4851185;29;20037;-69
2023/02/10 10:06:21;;;;;;;47.22;20.25;;;;;;;;;;4859741;29;20034;-59
2023/02/10 10:08:47;;;;;;;41.30;19.00;;;;;;;;;;4860366;29;20093;-59
2023/02/10 10:11:37;;;;;;;41.50;19.05;;;;;;;;;;4860609;29;20029;-59
2023/02/10 10:14:03;;;;;;;42.03;19.33;;;;;;;;;;4851118;29;20053;-66
2023/02/10 10:16:32;;;;;;;50.40;20.38;;;;;;;;;;4860926;29;20078;-69
2023/02/10 10:18:58;;;;;;;46.08;19.40;;;;;;;;;;4860743;29;20122;-60
2023/02/10 10:21:35;;;;;;;43.22;20.13;;;;;;;;;;4860426;29;20065;-59
2023/02/10 10:24:07;;;;;;;48.28;20.80;;;;;;;;;;4859425;29;20037;-69
2023/02/10 10:26:41;;;;;;;90.80;40.03;;;;;;;;;;4859415;29;20044;-59
2023/02/10 10:29:07;;;;;;;73.55;32.63;;;;;;;;;;4859623;29;20033;-72
2023/02/10 10:31:35;;;;;;;84.60;34.33;;;;;;;;;;4859836;29;20032;-67
2023/02/10 10:34:07;;;;;;;55.58;24.38;;;;;;;;;;4860523;29;20033;-59
2023/02/10 10:36:35;;;;;;;49.20;23.45;;;;;;;;;;4859645;29;20108;-60
2023/02/10 10:39:07;;;;;;;57.47;25.50;;;;;;;;;;4852829;29;20038;-72
2023/02/10 10:41:35;;;;;;;41.25;18.35;;;;;;;;;;4839527;29;20546;-71
2023/02/10 10:44:02;;;;;;;54.60;22.17;;;;;;;;;;4840661;29;20042;-67
2023/02/10 10:46:31;;;;;;;91.03;41.45;;;;;;;;;;4841603;29;20045;-59
2023/02/10 10:48:57;;;;;;;42.63;20.08;;;;;;;;;;4841826;29;20579;-63
2023/02/10 10:51:25;;;;;;;36.65;18.83;;;;;;;;;;4841822;29;20053;-69
2023/02/10 10:53:53;;;;;;;39.33;17.02;;;;;;;;;;4841509;29;20026;-59
2023/02/10 10:56:40;;;;;;;43.95;21.60;;;;;;;;;;4854012;29;20072;-59
2023/02/10 10:59:18;;;;;;;47.17;22.75;;;;;;;;;;4859510;29;20474;-60
2023/02/10 11:01:45;;;;;;;48.20;23.10;;;;;;;;;;4842706;29;20097;-69
2023/02/10 11:04:13;;;;;;;47.47;23.30;;;;;;;;;;4840017;29;20037;-64
2023/02/10 11:06:40;;;;;;;47.13;21.65;;;;;;;;;;4839883;29;20030;-59
2023/02/10 11:09:35;;;;;;;42.92;21.48;;;;;;;;;;4839345;29;20179;-68
2023/02/10 11:12:06;;;;;;;50.38;22.95;;;;;;;;;;4766484;29;20123;-59
2023/02/10 11:14:40;;;;;;;45.28;21.15;;;;;;;;;;4766683;30;20078;-60
2023/02/10 11:17:27;;;;;;;47.88;21.33;;;;;;;;;;4766096;30;20051;-59
2023/02/10 11:20:04;;;;;;;49.25;21.30;;;;;;;;;;4766550;30;20081;-61
2023/02/10 11:22:30;;;;;;;47.53;21.67;;;;;;;;;;4766636;30;20117;-60
2023/02/10 11:24:57;;;;;;;41.33;20.92;;;;;;;;;;4766404;30;20040;-60
2023/02/10 11:27:23;;;;;;;47.33;21.17;;;;;;;;;;4765945;30;20035;-60
2023/02/10 11:29:49;;;;;;;55.85;23.30;;;;;;;;;;4766044;30;20051;-66
2023/02/10 11:32:23;;;;;;;45.88;21.63;;;;;;;;;;4765675;30;20043;-61
2023/02/10 11:34:50;;;;;;;47.95;21.55;;;;;;;;;;4765961;30;20122;-62
2023/02/10 11:37:34;;;;;;;43.92;21.30;;;;;;;;;;4775326;30;20046;-60
2023/02/10 11:40:01;;;;;;;47.08;21.85;;;;;;;;;;4783773;30;20039;-60
2023/02/10 11:42:32;;;;;;;44.88;21.50;;;;;;;;;;4784045;30;20054;-60
2023/02/10 11:45:00;;;;;;;49.95;23.02;;;;;;;;;;4783347;29;20505;-60
2023/02/10 11:47:30;;;;;;;47.13;22.40;;;;;;;;;;4791419;29;20059;-60
2023/02/10 11:49:56;;;;;;;44.50;20.30;;;;;;;;;;4856450;29;20395;-73
2023/02/10 11:52:24;;;;;;;42.00;20.15;;;;;;;;;;4856779;29;20037;-61
2023/02/10 11:54:51;;;;;;;40.67;19.92;;;;;;;;;;4856632;29;20033;-64
2023/02/10 12:00:12;;;;;;;47.33;21.88;;;;;;;;;;4840625;29;20088;-63
2023/02/10 12:02:45;;;;;;;43.17;22.23;;;;;;;;;;4832851;29;20030;-61
2023/02/10 12:05:15;;;;;;;43.53;20.08;;;;;;;;;;4822360;29;20030;-61
2023/02/10 12:07:42;;;;;;;42.63;18.70;;;;;;;;;;4821964;29;20121;-61
2023/02/10 12:10:08;;;;;;;43.28;19.30;;;;;;;;;;4822099;29;20022;-69
2023/02/10 12:12:47;;;;;;;37.80;18.67;;;;;;;;;;4822131;29;20067;-60
2023/02/10 12:15:13;;;;;;;43.75;19.02;;;;;;;;;;4821784;29;20050;-60
2023/02/10 12:17:46;;;;;;;42.72;18.98;;;;;;;;;;4822242;29;20070;-61
2023/02/10 12:20:12;;;;;;;;;;;;;;;;;;4822691;29;20030;-61
2023/02/10 12:22:44;;;;;;;32.97;15.63;;;;;;;;;;4822366;29;19916;-60
2023/02/10 12:25:10;;;;;;;;;;;;;;;;;;4822594;29;20064;-61
2023/02/10 12:27:45;;;;;;;31.73;14.68;;;;;;;;;;4821960;29;19913;-62
2023/02/10 12:30:31;;;;;;;38.10;17.38;;;;;;;;;;4822203;29;20113;-61
2023/02/10 12:33:16;;;;;;;22.52;11.02;;;;;;;;;;4812460;29;20129;-60
2023/02/10 12:35:45;;;;;;;26.88;12.75;;;;;;;;;;4822062;29;20160;-60
2023/02/10 12:38:14;;;;;;;48.60;26.17;;;;;;;;;;4821962;29;20433;-61
2023/02/10 12:40:59;;;;;;;21.70;10.75;;;;;;;;;;4834164;29;20026;-61
2023/02/10 12:43:25;;;;;;;28.15;13.07;;;;;;;;;;4840058;29;20045;-65
2023/02/10 12:46:09;;;;;;;22.90;11.65;;;;;;;;;;4854250;29;20057;-61
2023/02/10 12:49:14;;;;;;;23.33;12.63;;;;;;;;;;4858539;29;20505;-60
2023/02/10 12:51:40;;;;;;;21.02;10.32;;;;;;;;;;4786659;30;20043;-61
2023/02/10 12:54:12;;;;;;;16.67;8.27;;;;;;;;;;4786257;30;20027;-61
2023/02/10 12:56:44;;;;;;;23.98;11.02;;;;;;;;;;4786876;30;20100;-61
2023/02/10 12:59:23;;;;;;;26.48;12.38;;;;;;;;;;4786433;30;20088;-62
2023/02/10 13:01:56;;;;;;;25.08;12.70;;;;;;;;;;4785872;30;20049;-60
2023/02/10 13:04:30;;;;;;;21.42;9.85;;;;;;;;;;4768686;30;20113;-60
2023/02/10 13:07:12;;;;;;;36.15;15.63;;;;;;;;;;4769177;30;20032;-63
2023/02/10 13:09:44;;;;;;;44.38;24.17;;;;;;;;;;4774419;29;20138;-69
2023/02/10 13:12:11;;;;;;;27.77;14.55;;;;;;;;;;4786670;30;20027;-60
2023/02/10 13:14:40;;;;;;;20.63;9.63;;;;;;;;;;4786965;30;20138;-60
2023/02/10 13:17:06;;;;;;;18.70;10.07;;;;;;;;;;4786380;30;20086;-59
2023/02/10 13:19:32;;;;;;;18.33;8.90;;;;;;;;;;4786693;30;20516;-60
2023/02/10 13:22:01;;;;;;;19.77;8.23;;;;;;;;;;4810325;29;20045;-61
2023/02/10 13:24:42;;;;;;;18.13;8.98;;;;;;;;;;4861688;29;20561;-63
2023/02/10 13:27:14;;;;;;;24.65;10.82;;;;;;;;;;4861146;29;20029;-60
2023/02/10 13:30:13;;;;;;;16.25;8.45;;;;;;;;;;4861023;29;20037;-61
2023/02/10 13:33:05;;;;;;;18.40;8.95;;;;;;;;;;4804255;29;20380;-59
2023/02/10 13:35:31;;;;;;;19.25;7.53;;;;;;;;;;4804258;29;20060;-60
2023/02/10 13:38:00;;;;;;;18.20;9.57;;;;;;;;;;4804349;29;20057;-60
2023/02/10 13:40:26;;;;;;;23.38;10.88;;;;;;;;;;4803830;29;20026;-58
2023/02/10 13:42:54;;;;;;;19.15;9.10;;;;;;;;;;4804574;29;20047;-59
2023/02/10 13:45:22;;;;;;;27.02;12.80;;;;;;;;;;4802453;29;20133;-58
2023/02/10 13:47:50;;;;;;;23.33;10.85;;;;;;;;;;4803706;29;20047;-62
2023/02/10 13:50:22;;;;;;;17.25;7.97;;;;;;;;;;4802944;29;20041;-58
2023/02/10 13:52:49;;;;;;;15.77;8.25;;;;;;;;;;4803903;29;20043;-58
2023/02/10 13:55:15;;;;;;;20.25;8.90;;;;;;;;;;4803938;29;20051;-58
2023/02/10 13:57:52;;;;;;;18.75;8.90;;;;;;;;;;4803851;29;20045;-60
2023/02/10 14:00:23;;;;;;;18.98;8.48;;;;;;;;;;4803326;29;20053;-67
2023/02/10 14:03:03;;;;;;;26.08;11.07;;;;;;;;;;4803706;29;20055;-61
2023/02/10 14:05:34;;;;;;;29.83;12.38;;;;;;;;;;4799313;29;20046;-61
2023/02/10 14:08:00;;;;;;;39.50;16.27;;;;;;;;;;4801248;29;20419;-60
2023/02/10 14:10:28;;;;;;;21.75;9.93;;;;;;;;;;4823604;29;20045;-61
2023/02/10 14:12:59;;;;;;;24.75;9.88;;;;;;;;;;4823583;29;20045;-60
2023/02/10 14:15:27;;;;;;;26.67;11.50;;;;;;;;;;4823914;29;20114;-60
2023/02/10 14:17:57;;;;;;;21.98;9.25;;;;;;;;;;4823717;29;20430;-64
2023/02/10 14:20:25;;;;;;;24.23;9.90;;;;;;;;;;4823600;29;20037;-60
2023/02/10 14:22:51;;;;;;;26.08;12.75;;;;;;;;;;4823866;29;20026;-60
2023/02/10 14:25:20;;;;;;;19.58;9.48;;;;;;;;;;4823569;29;20030;-60
2023/02/10 14:27:50;;;;;;;22.08;9.60;;;;;;;;;;4823499;29;20391;-60
2023/02/10 14:30:20;;;;;;;22.98;11.25;;;;;;;;;;4824012;29;20109;-60
2023/02/10 14:32:46;;;;;;;21.70;9.52;;;;;;;;;;4823910;29;20027;-61
2023/02/10 14:35:16;;;;;;;20.65;8.68;;;;;;;;;;4823511;29;20031;-60
2023/02/10 14:37:49;;;;;;;17.52;9.43;;;;;;;;;;4823858;29;20038;-59
2023/02/10 14:40:16;;;;;;;18.15;8.88;;;;;;;;;;4823262;29;20035;-60
2023/02/10 14:42:42;;;;;;;21.65;9.75;;;;;;;;;;4823680;29;20027;-62
2023/02/10 14:45:19;;;;;;;27.95;12.73;;;;;;;;;;4832041;29;20061;-61
2023/02/10 14:47:46;;;;;;;21.02;10.35;;;;;;;;;;4841380;29;20054;-61
2023/02/10 14:50:25;;;;;;;21.13;10.40;;;;;;;;;;4830754;29;20382;-60
2023/02/10 14:52:52;;;;;;;23.50;11.23;;;;;;;;;;4858996;29;20038;-64
2023/02/10 14:55:27;;;;;;;26.52;12.50;;;;;;;;;;4859902;29;20029;-61
2023/02/10 14:57:56;;;;;;;21.67;10.88;;;;;;;;;;4860327;29;20033;-61
2023/02/10 15:00:22;;;;;;;33.80;14.77;;;;;;;;;;4859565;29;20486;-65
2023/02/10 15:02:49;;;;;;;27.90;12.93;;;;;;;;;;4859728;29;20103;-60
2023/02/10 15:05:20;;;;;;;29.55;12.05;;;;;;;;;;4859660;29;20033;-60
2023/02/10 15:07:48;;;;;;;34.55;14.27;;;;;;;;;;4860073;29;20074;-60
2023/02/10 15:10:30;;;;;;;23.52;11.13;;;;;;;;;;4859463;29;20029;-61
2023/02/10 15:12:57;;;;;;;29.10;12.30;;;;;;;;;;4859232;29;20034;-60
2023/02/10 15:15:27;;;;;;;55.15;21.00;;;;;;;;;;4859466;29;20029;-60
2023/02/10 15:17:56;;;;;;;46.65;18.65;;;;;;;;;;4859252;29;20030;-60
2023/02/10 15:20:27;;;;;;;25.10;12.43;;;;;;;;;;4859508;29;20025;-60
2023/02/10 15:22:56;;;;;;;16.40;8.25;;;;;;;;;;4859589;29;20025;-60
2023/02/10 15:25:37;;;;;;;23.08;11.43;;;;;;;;;;4859141;29;20037;-59
2023/02/10 15:28:10;;;;;;;31.98;14.63;;;;;;;;;;4843863;29;20049;-62
2023/02/10 15:30:44;;;;;;;30.85;13.63;;;;;;;;;;4840862;29;20038;-60
2023/02/10 15:33:15;;;;;;;28.73;13.73;;;;;;;;;;4840691;29;20041;-60
2023/02/10 15:35:41;;;;;;;27.90;14.07;;;;;;;;;;4840592;29;20474;-60
2023/02/10 15:38:09;;;;;;;32.60;14.40;;;;;;;;;;4840859;29;20069;-64
2023/02/10 15:40:35;;;;;;;38.00;17.35;;;;;;;;;;4840761;29;20530;-65
2023/02/10 15:43:21;;;;;;;25.02;12.43;;;;;;;;;;4840868;29;20030;-63
2023/02/10 15:45:48;;;;;;;27.38;14.35;;;;;;;;;;4839944;29;20525;-70
2023/02/10 15:48:19;;;;;;;33.65;15.43;;;;;;;;;;4840139;29;20049;-62
2023/02/10 15:50:45;;;;;;;35.63;14.25;;;;;;;;;;4840242;29;20038;-62
2023/02/10 15:53:11;;;;;;;36.83;15.68;;;;;;;;;;4840178;29;20030;-61
2023/02/10 15:55:40;;;;;;;46.13;20.65;;;;;;;;;;4840530;29;20069;-58
2023/02/10 15:58:06;;;;;;;32.63;14.93;;;;;;;;;;4840654;29;20065;-66
2023/02/10 16:00:34;;;;;;;40.08;18.83;;;;;;;;;;4840516;29;20030;-67
2023/02/10 16:03:00;;;;;;;27.65;13.38;;;;;;;;;;4840638;29;20038;-60
2023/02/10 16:05:27;;;;;;;40.15;17.88;;;;;;;;;;4840570;29;20470;-60
2023/02/10 16:07:53;;;;;;;44.78;18.75;;;;;;;;;;4840421;29;20073;-62
2023/02/10 16:10:21;;;;;;;54.08;21.63;;;;;;;;;;4840267;29;20170;-62
2023/02/10 16:12:47;;;;;;;32.00;14.93;;;;;;;;;;4840290;29;20042;-61
2023/02/10 16:15:17;;;;;;;35.17;15.48;;;;;;;;;;4840278;29;20053;-61
2023/02/10 16:17:50;;;;;;;37.45;17.20;;;;;;;;;;4840269;29;20046;-60
2023/02/10 16:20:26;;;;;;;28.63;13.23;;;;;;;;;;4840058;29;20386;-61
2023/02/10 16:22:53;;;;;;;33.80;17.48;;;;;;;;;;4839990;29;20439;-61
2023/02/10 16:25:20;;;;;;;37.83;17.83;;;;;;;;;;4839713;29;20117;-62
2023/02/10 16:27:46;;;;;;;36.70;18.23;;;;;;;;;;4839452;29;20040;-60
2023/02/10 16:30:32;;;;;;;46.97;22.90;;;;;;;;;;4840104;29;20034;-60
2023/02/10 16:32:59;;;;;;;47.50;24.83;;;;;;;;;;4839882;29;20112;-60
2023/02/10 16:35:25;;;;;;;44.53;21.25;;;;;;;;;;4839646;29;20049;-60
2023/02/10 16:37:52;;;;;;;40.63;19.55;;;;;;;;;;4840112;29;20041;-64
2023/02/10 16:40:25;;;;;;;39.95;18.25;;;;;;;;;;4840268;29;20105;-61
2023/02/10 16:42:52;;;;;;;;;;;;;;;;;;4840323;29;20477;-60
2023/02/10 16:45:18;;;;;;;48.10;20.98;;;;;;;;;;4829186;29;20005;-61
2023/02/10 16:47:44;;;;;;;59.92;27.58;;;;;;;;;;4821770;29;20042;-60
2023/02/10 16:50:19;;;;;;;103.45;41.25;;;;;;;;;;4821742;29;20041;-61
2023/02/10 16:52:45;;;;;;;93.97;36.65;;;;;;;;;;4821836;29;20532;-61
2023/02/10 16:55:11;;;;;;;52.70;24.27;;;;;;;;;;4822154;29;20041;-61
2023/02/10 16:57:38;;;;;;;50.63;23.25;;;;;;;;;;4822022;29;20105;-60
2023/02/10 17:00:05;;;;;;;47.45;20.20;;;;;;;;;;4821544;29;20046;-60
2023/02/10 17:02:31;;;;;;;140.82;60.63;;;;;;;;;;4820975;29;20050;-60
2023/02/10 17:04:57;;;;;;;109.53;47.75;;;;;;;;;;4821571;29;20034;-60
2023/02/10 17:07:23;;;;;;;73.40;31.58;;;;;;;;;;4820931;29;20436;-62
2023/02/10 17:09:49;;;;;;;94.30;39.58;;;;;;;;;;4820189;29;20095;-61
2023/02/10 17:12:15;;;;;;;93.68;38.38;;;;;;;;;;4820764;29;20038;-60
2023/02/10 17:14:41;;;;;;;73.82;28.73;;;;;;;;;;4821446;29;20090;-63
2023/02/10 17:17:10;;;;;;;90.47;35.30;;;;;;;;;;4820228;29;20039;-60
2023/02/10 17:19:36;;;;;;;112.50;43.53;;;;;;;;;;4820159;29;20535;-60
2023/02/10 17:22:02;;;;;;;94.68;39.92;;;;;;;;;;4820663;29;20063;-62
2023/02/10 17:24:28;;;;;;;81.10;35.20;;;;;;;;;;4821416;29;20032;-62
2023/02/10 17:26:54;;;;;;;76.60;33.83;;;;;;;;;;4821557;29;20034;-64
2023/02/10 17:29:21;;;;;;;69.22;29.95;;;;;;;;;;4821060;29;20135;-61
2023/02/10 17:31:47;;;;;;;66.10;28.60;;;;;;;;;;4821234;29;20448;-60
2023/02/10 17:34:14;;;;;;;70.72;30.05;;;;;;;;;;4820992;29;20058;-60
2023/02/10 17:36:41;;;;;;;63.78;28.95;;;;;;;;;;4822599;29;20038;-60
2023/02/10 17:41:52;;;;;;;60.00;26.00;;;;;;;;;;4824263;29;20094;-60
2023/02/10 17:44:18;;;;;;;63.95;25.98;;;;;;;;;;4823207;29;20109;-60
2023/02/10 17:46:46;;;;;;;60.33;25.42;;;;;;;;;;4823816;29;20368;-60
2023/02/10 17:49:13;;;;;;;60.70;27.80;;;;;;;;;;4823602;29;20087;-60
2023/02/10 17:51:39;;;;;;;52.67;24.48;;;;;;;;;;4824243;29;20082;-62
2023/02/10 17:54:05;;;;;;;65.20;27.38;;;;;;;;;;4823938;29;20049;-61
2023/02/10 17:56:31;;;;;;;55.53;23.85;;;;;;;;;;4823871;29;20033;-62
2023/02/10 17:58:58;;;;;;;56.28;24.80;;;;;;;;;;4824018;29;20035;-61
2023/02/10 18:01:26;;;;;;;66.47;27.17;;;;;;;;;;4824113;29;20027;-60
2023/02/10 18:03:52;;;;;;;67.15;27.58;;;;;;;;;;4823783;29;20498;-59
2023/02/10 18:06:18;;;;;;;66.30;29.38;;;;;;;;;;4824162;29;20395;-62
2023/02/10 18:08:45;;;;;;;69.22;29.88;;;;;;;;;;4823808;29;20517;-61
2023/02/10 18:11:11;;;;;;;72.55;31.30;;;;;;;;;;4823780;29;20494;-62
2023/02/10 18:13:37;;;;;;;77.15;32.30;;;;;;;;;;4823519;29;20042;-62
2023/02/10 18:16:03;;;;;;;77.55;32.78;;;;;;;;;;4823713;29;20038;-61
2023/02/10 18:18:30;;;;;;;73.15;32.70;;;;;;;;;;4823532;29;20030;-63
2023/02/10 18:20:56;;;;;;;75.85;33.13;;;;;;;;;;4822409;29;20029;-63
2023/02/10 18:23:22;;;;;;;85.28;34.88;;;;;;;;;;4822836;29;20113;-64
2023/02/10 18:25:48;;;;;;;76.10;30.58;;;;;;;;;;4823209;29;20038;-62
2023/02/10 18:28:14;;;;;;;75.15;32.03;;;;;;;;;;4823182;29;20483;-62
2023/02/10 18:30:43;;;;;;;72.70;34.17;;;;;;;;;;4823228;29;20053;-62
2023/02/10 18:33:13;;;;;;;78.30;34.28;;;;;;;;;;4823690;29;20118;-61
2023/02/10 18:35:39;;;;;;;82.35;34.10;;;;;;;;;;4823791;29;20030;-62
2023/02/10 18:38:06;;;;;;;88.70;34.58;;;;;;;;;;4823024;29;20059;-66
2023/02/10 18:40:33;;;;;;;85.43;36.28;;;;;;;;;;4823500;29;20027;-62
2023/02/10 18:42:59;;;;;;;86.60;37.38;;;;;;;;;;4823527;29;20053;-62
2023/02/10 18:45:25;;;;;;;81.38;36.35;;;;;;;;;;4833160;29;20499;-65
2023/02/10 18:47:51;;;;;;;88.50;38.17;;;;;;;;;;4840612;29;20582;-63
2023/02/10 18:50:17;;;;;;;92.32;37.38;;;;;;;;;;4841418;29;20150;-68
2023/02/10 18:52:43;;;;;;;96.00;39.70;;;;;;;;;;4841391;29;20041;-63
2023/02/10 18:55:09;;;;;;;97.20;40.58;;;;;;;;;;4841624;29;20037;-62
2023/02/10 18:57:35;;;;;;;90.75;40.47;;;;;;;;;;4848367;29;20446;-63
2023/02/10 19:00:01;;;;;;;105.18;44.50;;;;;;;;;;4858860;29;20511;-65
2023/02/10 19:02:27;;;;;;;97.57;43.53;;;;;;;;;;4852550;29;20554;-63
2023/02/10 19:04:54;;;;;;;111.07;45.10;;;;;;;;;;4841025;29;20086;-63
2023/02/10 19:07:20;;;;;;;95.85;43.15;;;;;;;;;;4848731;29;20029;-62
2023/02/10 19:09:46;;;;;;;102.82;44.65;;;;;;;;;;4858551;29;20037;-62
2023/02/10 19:12:12;;;;;;;106.68;45.92;;;;;;;;;;4848373;29;20105;-62
2023/02/10 19:14:38;;;;;;;101.80;45.63;;;;;;;;;;4839983;29;20042;-64
2023/02/10 19:17:04;;;;;;;103.68;44.75;;;;;;;;;;4822532;29;20038;-62
2023/02/10 19:19:30;;;;;;;107.03;45.90;;;;;;;;;;4822106;29;20079;-62
2023/02/10 19:21:57;;;;;;;105.60;45.80;;;;;;;;;;4822568;29;20041;-61
2023/02/10 19:24:23;;;;;;;100.40;45.60;;;;;;;;;;4822477;29;20491;-61
2023/02/10 19:26:49;;;;;;;122.93;52.78;;;;;;;;;;4822486;29;20057;-62
2023/02/10 19:29:15;;;;;;;115.57;51.88;;;;;;;;;;4822271;29;20050;-62
2023/02/10 19:31:41;;;;;;;129.32;57.40;;;;;;;;;;4822365;29;20035;-66
2023/02/10 19:34:07;;;;;;;158.68;68.55;;;;;;;;;;4822220;29;20030;-63
2023/02/10 19:36:33;;;;;;;162.80;68.60;;;;;;;;;;4828994;29;20025;-62
2023/02/10 19:38:59;;;;;;;164.38;72.07;;;;;;;;;;4846423;29;20042;-64
2023/02/10 19:41:26;;;;;;;174.85;72.72;;;;;;;;;;4842548;29;20030;-64
2023/02/10 19:43:53;;;;;;;166.75;67.60;;;;;;;;;;4858665;29;20048;-63
2023/02/10 19:46:19;;;;;;;162.88;70.25;;;;;;;;;;4858543;29;20057;-64
2023/02/10 19:48:46;;;;;;;173.52;70.75;;;;;;;;;;4858759;29;20041;-62
2023/02/10 19:51:14;;;;;;;177.80;74.07;;;;;;;;;;4858379;29;20026;-62
2023/02/10 19:53:40;;;;;;;170.35;72.85;;;;;;;;;;4850787;29;20037;-62
2023/02/10 19:56:07;;;;;;;182.95;73.45;;;;;;;;;;4840240;29;20057;-65
2023/02/10 19:58:34;;;;;;;172.23;71.70;;;;;;;;;;4839880;29;20475;-63
2023/02/10 20:01:01;;;;;;;168.27;69.13;;;;;;;;;;4840136;29;20058;-62
2023/02/10 20:03:28;;;;;;;161.88;70.20;;;;;;;;;;4840227;29;20025;-62
2023/02/10 20:05:54;;;;;;;164.88;70.70;;;;;;;;;;4839902;29;20070;-63
2023/02/10 20:08:20;;;;;;;176.65;74.30;;;;;;;;;;4840015;29;20418;-61
2023/02/10 20:10:50;;;;;;;174.50;74.10;;;;;;;;;;4839672;29;20030;-62
2023/02/10 20:13:16;;;;;;;185.80;79.28;;;;;;;;;;4856202;29;20030;-61
2023/02/10 20:15:42;;;;;;;171.38;72.65;;;;;;;;;;4858157;29;20033;-62